createdAt,value
2022-12-13T00:01:24.742Z,18.53
2022-12-13T00:03:56.628Z,17.07
2022-12-13T00:06:25.555Z,17.77
2022-12-13T00:08:53.432Z,18.20
2022-12-13T00:11:21.112Z,16.17
2022-12-13T00:13:48.612Z,17.43
2022-12-13T00:16:18.003Z,17.57
2022-12-13T00:18:51.075Z,13.57
2022-12-13T00:21:20.452Z,16.17
2022-12-13T00:23:48.294Z,18.10
2022-12-13T00:26:18.397Z,15.80
2022-12-13T00:28:49.187Z,17.10
2022-12-13T00:31:53.588Z,20.77
2022-12-13T00:34:05.047Z,17.30
2022-12-13T00:36:32.382Z,16.17
2022-12-13T00:39:02.710Z,16.83
2022-12-13T00:41:32.469Z,16.13
2022-12-13T00:44:00.195Z,18.23
2022-12-13T00:46:28.293Z,20.27
2022-12-13T00:48:57.732Z,16.27
2022-12-13T00:51:26.176Z,19.27
2022-12-13T00:53:53.820Z,18.73
2022-12-13T00:56:23.547Z,18.43
2022-12-13T00:58:52.306Z,20.50
2022-12-13T01:01:28.509Z,18.77
2022-12-13T01:03:57.864Z,18.33
2022-12-13T01:06:45.614Z,17.83
2022-12-13T01:09:18.978Z,20.17
2022-12-13T01:11:46.731Z,17.80
2022-12-13T01:14:14.838Z,19.80
2022-12-13T01:16:42.234Z,21.13
2022-12-13T01:19:09.669Z,17.70
2022-12-13T01:21:37.109Z,19.67
2022-12-13T01:24:05.838Z,20.97
2022-12-13T01:26:33.718Z,19.13
2022-12-13T01:29:01.704Z,15.63
2022-12-13T01:31:29.398Z,17.03
2022-12-13T01:33:56.792Z,16.20
2022-12-13T01:36:27.409Z,18.10
2022-12-13T01:38:57.974Z,21.67
2022-12-13T01:41:28.288Z,17.33
2022-12-13T01:44:03.741Z,16.90
2022-12-13T01:46:33.354Z,16.37
2022-12-13T01:49:19.365Z,20.20
2022-12-13T01:51:58.300Z,17.00
2022-12-13T01:54:33.431Z,15.20
2022-12-13T01:57:03.837Z,15.40
2022-12-13T01:59:31.545Z,17.20
2022-12-13T02:02:01.020Z,16.30
2022-12-13T02:04:55.423Z,16.90
2022-12-13T02:07:26.937Z,15.80
2022-12-13T02:09:57.411Z,16.60
2022-12-13T02:12:31.340Z,15.30
2022-12-13T02:15:05.765Z,14.43
2022-12-13T02:17:54.653Z,15.00
2022-12-13T02:20:35.640Z,17.90
2022-12-13T02:23:21.033Z,16.57
2022-12-13T02:26:13.949Z,16.27
2022-12-13T02:28:56.389Z,16.07
2022-12-13T02:31:35.722Z,16.67
2022-12-13T02:34:27.392Z,15.43
2022-12-13T02:37:00.696Z,17.00
2022-12-13T02:39:41.476Z,19.83
2022-12-13T02:42:22.683Z,19.03
2022-12-13T02:45:20.362Z,17.93
2022-12-13T02:47:51.784Z,17.63
2022-12-13T02:50:20.344Z,18.03
2022-12-13T02:52:47.863Z,17.13
2022-12-13T02:55:16.526Z,16.23
2022-12-13T02:57:45.696Z,17.80
2022-12-13T03:00:17.365Z,17.67
2022-12-13T03:02:53.632Z,15.67
2022-12-13T03:05:39.510Z,18.33
2022-12-13T03:08:21.522Z,18.20
2022-12-13T03:11:09.228Z,17.30
2022-12-13T03:13:39.623Z,17.40
2022-12-13T03:16:23.543Z,20.13
2022-12-13T03:18:53.281Z,17.60
2022-12-13T03:21:22.877Z,19.73
2022-12-13T03:23:50.219Z,20.60
2022-12-13T03:26:26.208Z,18.93
2022-12-13T03:28:53.801Z,19.90
2022-12-13T03:31:21.370Z,18.00
2022-12-13T03:33:48.923Z,17.53
2022-12-13T03:36:17.142Z,18.63
2022-12-13T03:38:45.223Z,21.60
2022-12-13T03:41:18.915Z,20.00
2022-12-13T03:43:46.401Z,20.37
2022-12-13T03:46:13.884Z,18.70
2022-12-13T03:48:41.421Z,16.43
2022-12-13T03:51:08.840Z,16.73
2022-12-13T03:53:36.220Z,14.70
2022-12-13T03:56:05.401Z,17.77
2022-12-13T03:58:35.381Z,15.77
2022-12-13T04:01:09.414Z,17.33
2022-12-13T04:03:38.091Z,16.93
2022-12-13T04:06:06.248Z,17.90
2022-12-13T04:08:34.427Z,17.57
2022-12-13T04:11:22.146Z,16.37
2022-12-13T04:13:49.468Z,15.73
2022-12-13T04:16:16.847Z,17.20
2022-12-13T04:18:44.266Z,15.77
2022-12-13T04:21:11.662Z,14.93
2022-12-13T04:23:39.069Z,17.07
2022-12-13T04:26:06.525Z,14.87
2022-12-13T04:28:34.014Z,16.23
2022-12-13T04:31:01.323Z,16.13
2022-12-13T04:33:28.732Z,16.05
2022-12-13T04:35:56.100Z,14.30
2022-12-13T04:38:23.389Z,20.33
2022-12-13T04:40:50.783Z,19.30
2022-12-13T04:43:18.278Z,14.90
2022-12-13T04:45:45.660Z,18.17
2022-12-13T04:48:13.721Z,14.97
2022-12-13T04:51:01.042Z,17.90
2022-12-13T04:53:29.743Z,14.20
2022-12-13T04:55:57.214Z,14.70
2022-12-13T04:58:24.820Z,17.07
2022-12-13T05:00:52.310Z,15.83
2022-12-13T05:03:19.636Z,16.53
2022-12-13T05:05:47.023Z,15.47
2022-12-13T05:08:14.477Z,15.60
2022-12-13T05:10:41.781Z,15.77
2022-12-13T05:13:09.146Z,15.30
2022-12-13T05:15:36.496Z,14.40
2022-12-13T05:18:10.216Z,16.90
2022-12-13T05:20:39.300Z,16.48
2022-12-13T05:23:06.746Z,15.63
2022-12-13T05:25:36.933Z,15.97
2022-12-13T05:28:08.759Z,14.60
2022-12-13T05:30:53.058Z,14.48
2022-12-13T05:33:22.537Z,14.00
2022-12-13T05:35:49.965Z,16.07
2022-12-13T05:38:17.587Z,13.33
2022-12-13T05:40:45.308Z,17.97
2022-12-13T05:43:21.545Z,17.70
2022-12-13T05:45:49.329Z,14.73
2022-12-13T05:48:24.448Z,14.67
2022-12-13T05:51:10.619Z,16.20
2022-12-13T05:53:40.751Z,15.83
2022-12-13T05:56:09.377Z,15.70
2022-12-13T05:58:38.287Z,16.48
2022-12-13T06:01:08.528Z,13.07
2022-12-13T06:03:36.373Z,13.63
2022-12-13T06:06:05.327Z,16.77
2022-12-13T06:08:33.086Z,13.25
2022-12-13T06:11:11.875Z,17.20
2022-12-13T06:13:42.791Z,17.03
2022-12-13T06:16:21.687Z,16.90
2022-12-13T06:18:55.915Z,16.70
2022-12-13T06:21:40.676Z,19.00
2022-12-13T06:24:11.156Z,17.00
2022-12-13T06:26:38.588Z,13.83
2022-12-13T06:29:05.922Z,16.10
2022-12-13T06:31:33.252Z,14.80
2022-12-13T06:34:14.879Z,17.05
2022-12-13T06:36:43.257Z,21.08
2022-12-13T06:39:10.652Z,17.55
2022-12-13T06:41:37.998Z,17.77
2022-12-13T06:44:05.748Z,17.00
2022-12-13T06:46:33.414Z,16.35
2022-12-13T06:49:01.401Z,16.73
2022-12-13T06:51:32.518Z,17.40
2022-12-13T06:54:02.480Z,16.15
2022-12-13T06:56:30.663Z,18.63
2022-12-13T06:59:01.977Z,19.45
2022-12-13T07:01:37.790Z,18.38
2022-12-13T07:04:29.978Z,19.60
2022-12-13T07:06:53.866Z,19.00
2022-12-13T07:09:21.265Z,16.92
2022-12-13T07:11:52.271Z,16.73
2022-12-13T07:14:20.142Z,18.83
2022-12-13T07:16:47.561Z,15.43
2022-12-13T07:19:23.431Z,15.02
2022-12-13T07:21:52.201Z,15.82
2022-12-13T07:24:19.654Z,16.08
2022-12-13T07:26:47.327Z,15.55
2022-12-13T07:29:22.651Z,16.98
2022-12-13T07:31:50.419Z,15.90
2022-12-13T07:34:17.889Z,14.27
2022-12-13T07:36:45.281Z,18.02
2022-12-13T07:39:12.610Z,18.83
2022-12-13T07:41:39.952Z,15.23
2022-12-13T07:44:08.008Z,15.18
2022-12-13T07:46:35.498Z,13.90
2022-12-13T07:49:04.080Z,14.17
2022-12-13T07:51:33.081Z,16.40
2022-12-13T07:54:00.818Z,17.63
2022-12-13T07:56:34.331Z,13.70
2022-12-13T07:59:01.819Z,13.80
2022-12-13T08:01:34.842Z,15.77
2022-12-13T08:04:03.513Z,16.23
2022-12-13T08:06:34.405Z,16.80
2022-12-13T08:09:01.867Z,14.93
2022-12-13T08:11:29.241Z,13.70
2022-12-13T08:13:56.597Z,15.50
2022-12-13T08:16:27.157Z,16.03
2022-12-13T08:19:02.306Z,18.07
2022-12-13T08:21:55.346Z,15.73
2022-12-13T08:24:28.444Z,14.47
2022-12-13T08:27:01.888Z,14.47
2022-12-13T08:29:33.273Z,15.30
2022-12-13T08:32:20.439Z,15.50
2022-12-13T08:34:47.799Z,12.20
2022-12-13T08:37:15.135Z,14.27
2022-12-13T08:39:42.479Z,14.63
2022-12-13T08:42:20.052Z,15.60
2022-12-13T08:44:50.282Z,12.87
2022-12-13T08:47:23.036Z,12.63
2022-12-13T08:49:51.340Z,16.10
2022-12-13T08:52:19.493Z,13.13
2022-12-13T08:54:46.898Z,13.03
2022-12-13T08:57:14.241Z,12.20
2022-12-13T08:59:41.599Z,9.60
2022-12-13T09:02:13.535Z,10.97
2022-12-13T09:04:41.021Z,10.40
2022-12-13T09:07:08.817Z,9.43
2022-12-13T09:09:37.097Z,9.40
2022-12-13T09:12:10.471Z,9.97
2022-12-13T09:14:53.366Z,11.83
2022-12-13T09:17:37.131Z,12.97
2022-12-13T09:20:09.937Z,7.70
2022-12-13T09:23:01.121Z,9.50
2022-12-13T09:25:37.330Z,5.87
2022-12-13T09:28:09.499Z,4.80
2022-12-13T09:30:37.696Z,7.10
2022-12-13T09:33:29.549Z,9.20
2022-12-13T09:35:52.911Z,6.87
2022-12-13T09:38:20.328Z,6.37
2022-12-13T09:40:49.311Z,8.83
2022-12-13T09:43:32.194Z,8.43
2022-12-13T09:46:13.053Z,8.90
2022-12-13T09:48:50.461Z,7.83
2022-12-13T09:51:28.303Z,10.30
2022-12-13T09:53:58.038Z,9.43
2022-12-13T09:56:25.440Z,6.50
2022-12-13T09:58:55.409Z,6.80
2022-12-13T10:01:23.822Z,6.27
2022-12-13T10:03:56.075Z,10.00
2022-12-13T10:06:28.706Z,9.60
2022-12-13T10:08:59.359Z,9.23
2022-12-13T10:11:32.609Z,9.33
2022-12-13T10:14:45.943Z,9.10
2022-12-13T10:17:19.207Z,6.30
2022-12-13T10:19:51.849Z,8.50
2022-12-13T10:22:22.969Z,9.50
2022-12-13T10:24:54.879Z,5.97
2022-12-13T10:27:35.249Z,7.70
2022-12-13T10:30:07.109Z,6.60
2022-12-13T10:32:44.576Z,7.17
2022-12-13T10:35:30.413Z,7.00
2022-12-13T10:38:03.198Z,6.27
2022-12-13T10:40:40.620Z,5.50
2022-12-13T10:43:36.084Z,5.97
2022-12-13T10:46:15.902Z,8.77
2022-12-13T10:48:53.079Z,7.87
2022-12-13T10:51:21.891Z,7.20
2022-12-13T10:53:52.601Z,4.87
2022-12-13T10:56:23.923Z,9.07
2022-12-13T10:59:31.184Z,6.80
2022-12-13T11:01:58.868Z,7.60
2022-12-13T11:04:31.515Z,8.87
2022-12-13T11:07:21.962Z,5.93
2022-12-13T11:09:52.470Z,8.40
2022-12-13T11:12:23.069Z,7.43
2022-12-13T11:14:54.480Z,7.40
2022-12-13T11:17:29.709Z,6.37
2022-12-13T11:20:00.746Z,8.90
2022-12-13T11:22:30.556Z,9.03
2022-12-13T11:25:19.640Z,7.43
2022-12-13T11:28:26.459Z,9.93
2022-12-13T11:31:03.512Z,9.40
2022-12-13T11:34:08.181Z,7.17
2022-12-13T11:36:41.458Z,7.10
2022-12-13T11:39:30.849Z,6.97
2022-12-13T11:42:33.967Z,7.50
2022-12-13T11:45:23.497Z,9.07
2022-12-13T11:48:04.764Z,7.43
2022-12-13T11:50:38.695Z,9.57
2022-12-13T11:53:27.632Z,9.10
2022-12-13T11:56:01.373Z,8.67
2022-12-13T12:01:55.821Z,8.00
2022-12-13T12:04:35.377Z,8.50
2022-12-13T12:07:31.694Z,7.47
2022-12-13T12:10:26.945Z,7.63
2022-12-13T12:13:01.640Z,7.23
2022-12-13T12:15:49.109Z,8.50
2022-12-13T12:18:23.152Z,8.50
2022-12-13T12:21:16.426Z,7.20
2022-12-13T12:24:20.299Z,8.83
2022-12-13T12:27:22.628Z,6.73
2022-12-13T12:30:10.869Z,7.73
2022-12-13T12:33:02.600Z,6.50
2022-12-13T12:36:03.115Z,7.90
2022-12-13T12:38:33.232Z,8.07
2022-12-13T12:41:21.558Z,6.63
2022-12-13T12:44:11.788Z,7.80
2022-12-13T12:47:09.150Z,6.40
2022-12-13T12:49:57.482Z,6.40
2022-12-13T12:52:59.000Z,9.13
2022-12-13T12:55:51.570Z,9.47
2022-12-13T12:58:43.668Z,8.07
2022-12-13T13:01:23.231Z,8.53
2022-12-13T13:03:53.397Z,8.60
2022-12-13T13:06:45.389Z,3.13
2022-12-13T13:09:24.511Z,4.43
2022-12-13T13:11:57.583Z,8.20
2022-12-13T13:14:36.975Z,9.10
2022-12-13T13:17:16.520Z,8.40
2022-12-13T13:20:04.140Z,6.17
2022-12-13T13:22:43.038Z,10.10
2022-12-13T13:25:22.671Z,9.00
2022-12-13T13:27:51.269Z,7.73
2022-12-13T13:30:25.713Z,6.27
2022-12-13T13:32:54.964Z,6.67
2022-12-13T13:35:32.046Z,8.77
2022-12-13T13:38:00.665Z,8.30
2022-12-13T13:40:38.627Z,7.07
2022-12-13T13:43:06.114Z,7.90
2022-12-13T13:45:54.126Z,6.40
2022-12-13T13:48:36.410Z,8.47
2022-12-13T13:51:22.266Z,9.33
2022-12-13T13:54:22.404Z,8.67
2022-12-13T13:58:07.564Z,8.57
2022-12-13T14:00:41.123Z,7.63
2022-12-13T14:03:49.177Z,8.30
2022-12-13T14:06:49.700Z,7.80
2022-12-13T14:09:54.533Z,8.10
2022-12-13T14:12:24.579Z,8.43
2022-12-13T14:15:25.588Z,8.90
2022-12-13T14:18:21.112Z,9.33
2022-12-13T14:21:15.833Z,10.40
2022-12-13T14:24:17.261Z,8.90
2022-12-13T14:27:08.304Z,10.70
2022-12-13T14:29:57.637Z,9.40
2022-12-13T14:32:32.842Z,8.67
2022-12-13T14:35:25.297Z,11.40
2022-12-13T14:38:00.705Z,10.63
2022-12-13T14:40:34.979Z,11.67
2022-12-13T14:43:02.894Z,10.33
2022-12-13T14:45:33.303Z,10.63
2022-12-13T14:48:05.849Z,10.97
2022-12-13T14:50:35.575Z,12.20
2022-12-13T14:53:03.398Z,11.00
2022-12-13T14:55:33.379Z,9.83
2022-12-13T14:58:02.642Z,11.23
2022-12-13T15:00:36.138Z,12.47
2022-12-13T15:03:05.482Z,10.43
2022-12-13T15:05:37.410Z,11.00
2022-12-13T15:08:10.680Z,10.90
2022-12-13T15:10:48.519Z,11.00
2022-12-13T15:13:35.562Z,11.33
2022-12-13T15:16:10.609Z,10.93
2022-12-13T15:18:41.579Z,8.33
2022-12-13T15:21:22.824Z,10.10
2022-12-13T15:23:53.981Z,12.10
2022-12-13T15:26:30.327Z,13.00
2022-12-13T15:29:00.695Z,9.07
2022-12-13T15:31:28.874Z,9.77
2022-12-13T15:34:30.382Z,12.80
2022-12-13T15:37:12.311Z,11.67
2022-12-13T15:40:08.617Z,12.43
2022-12-13T15:42:38.463Z,10.43
2022-12-13T15:45:25.685Z,9.17
2022-12-13T15:47:54.345Z,10.10
2022-12-13T15:50:43.802Z,9.30
2022-12-13T15:53:34.003Z,10.97
2022-12-13T15:56:07.908Z,11.20
2022-12-13T15:58:37.905Z,12.27
2022-12-13T16:01:05.638Z,11.40
2022-12-13T16:03:44.586Z,11.30
2022-12-13T16:06:18.272Z,9.67
2022-12-13T16:08:49.444Z,11.10
2022-12-13T16:11:29.591Z,10.90
2022-12-13T16:14:27.022Z,10.83
2022-12-13T16:16:55.265Z,8.50
2022-12-13T16:19:23.042Z,9.17
2022-12-13T16:21:50.457Z,8.83
2022-12-13T16:24:17.866Z,9.60
2022-12-13T16:26:49.012Z,10.73
2022-12-13T16:29:19.510Z,10.13
2022-12-13T16:31:47.319Z,10.60
2022-12-13T16:34:18.176Z,10.30
2022-12-13T16:36:47.489Z,9.70
2022-12-13T16:39:15.601Z,10.00
2022-12-13T16:41:44.848Z,10.43
2022-12-13T16:44:21.983Z,9.87
2022-12-13T16:47:12.941Z,9.33
2022-12-13T16:49:37.104Z,9.80
2022-12-13T16:52:07.546Z,9.60
2022-12-13T16:54:35.596Z,10.17
2022-12-13T16:57:02.933Z,10.30
2022-12-13T16:59:30.530Z,8.90
2022-12-13T17:01:58.075Z,9.80
2022-12-13T17:04:27.411Z,7.87
2022-12-13T17:06:55.546Z,9.13
2022-12-13T17:09:25.002Z,9.97
2022-12-13T17:11:52.574Z,9.67
2022-12-13T17:14:20.017Z,8.80
2022-12-13T17:16:47.923Z,10.23
2022-12-13T17:19:15.669Z,10.30
2022-12-13T17:21:43.103Z,8.63
2022-12-13T17:24:10.541Z,7.80
2022-12-13T17:26:37.829Z,10.80
2022-12-13T17:29:05.251Z,8.47
2022-12-13T17:31:35.644Z,8.50
2022-12-13T17:34:04.411Z,10.73
2022-12-13T17:36:31.896Z,10.13
2022-12-13T17:38:59.758Z,13.30
2022-12-13T17:41:27.175Z,7.90
2022-12-13T17:44:00.082Z,8.70
2022-12-13T17:46:27.531Z,8.23
2022-12-13T17:48:55.021Z,6.50
2022-12-13T17:51:22.498Z,8.03
2022-12-13T17:53:49.780Z,6.60
2022-12-13T17:56:17.860Z,8.73
2022-12-13T17:58:45.906Z,10.27
2022-12-13T18:01:21.649Z,10.00
2022-12-13T18:03:51.953Z,8.83
2022-12-13T18:06:19.672Z,5.77
2022-12-13T18:08:47.821Z,8.07
2022-12-13T18:11:33.089Z,8.40
2022-12-13T18:14:02.765Z,8.17
2022-12-13T18:16:36.518Z,6.57
2022-12-13T18:19:10.961Z,5.67
2022-12-13T18:21:38.377Z,5.27
2022-12-13T18:24:06.940Z,7.80
2022-12-13T18:26:34.587Z,9.63
2022-12-13T18:29:02.848Z,11.03
2022-12-13T18:31:30.282Z,8.50
2022-12-13T18:33:57.766Z,9.20
2022-12-13T18:36:25.781Z,6.07
2022-12-13T18:38:53.406Z,8.43
2022-12-13T18:41:23.350Z,7.37
2022-12-13T18:44:07.928Z,8.67
2022-12-13T18:46:37.511Z,6.97
2022-12-13T18:49:05.914Z,5.00
2022-12-13T18:51:33.932Z,6.33
2022-12-13T18:54:01.310Z,2.17
2022-12-13T18:56:28.770Z,7.43
2022-12-13T18:58:58.186Z,7.40
2022-12-13T19:01:30.351Z,8.57
2022-12-13T19:03:57.840Z,6.47
2022-12-13T19:06:26.988Z,7.77
2022-12-13T19:08:56.763Z,6.70
2022-12-13T19:11:26.155Z,6.30
2022-12-13T19:13:53.780Z,4.17
2022-12-13T19:16:22.223Z,7.30
2022-12-13T19:18:50.120Z,7.33
2022-12-13T19:21:19.393Z,7.33
2022-12-13T19:23:53.206Z,7.57
2022-12-13T19:26:24.373Z,5.17
2022-12-13T19:28:51.775Z,4.20
2022-12-13T19:31:19.263Z,6.47
2022-12-13T19:33:47.718Z,3.67
2022-12-13T19:36:15.738Z,4.60
2022-12-13T19:38:43.705Z,6.40
2022-12-13T19:41:16.575Z,5.50
2022-12-13T19:43:50.631Z,5.03
2022-12-13T19:46:19.796Z,4.73
2022-12-13T19:48:47.437Z,6.60
2022-12-13T19:51:15.079Z,7.30
2022-12-13T19:53:42.603Z,6.57
2022-12-13T19:56:11.665Z,5.83
2022-12-13T19:58:39.765Z,6.93
2022-12-13T20:01:07.925Z,7.50
2022-12-13T20:03:37.065Z,12.67
2022-12-13T20:06:05.915Z,8.30
2022-12-13T20:08:33.507Z,6.57
2022-12-13T20:11:05.751Z,11.03
2022-12-13T20:13:34.740Z,10.80
2022-12-13T20:16:03.082Z,10.50
2022-12-13T20:18:30.751Z,6.00
2022-12-13T20:21:11.577Z,6.73
2022-12-13T20:23:39.732Z,6.20
2022-12-13T20:26:10.305Z,6.37
2022-12-13T20:28:38.143Z,5.43
2022-12-13T20:31:07.784Z,6.80
2022-12-13T20:33:36.027Z,9.17
2022-12-13T20:36:26.126Z,7.63
2022-12-13T20:38:56.128Z,6.57
2022-12-13T20:41:25.406Z,6.07
2022-12-13T20:43:54.087Z,5.07
2022-12-13T20:46:22.324Z,5.73
2022-12-13T20:48:50.215Z,7.27
2022-12-13T20:51:19.880Z,5.97
2022-12-13T20:53:48.839Z,7.20
2022-12-13T20:56:21.365Z,6.00
2022-12-13T20:58:49.152Z,6.20
2022-12-13T21:01:19.779Z,5.83
2022-12-13T21:03:47.260Z,5.50
2022-12-13T21:06:15.115Z,5.70
2022-12-13T21:08:51.631Z,7.33
2022-12-13T21:11:26.103Z,4.93
2022-12-13T21:14:20.888Z,4.57
2022-12-13T21:16:50.565Z,6.73
2022-12-13T21:19:21.328Z,6.57
2022-12-13T21:21:49.146Z,6.03
2022-12-13T21:24:18.076Z,6.70
2022-12-13T21:26:45.688Z,6.53
2022-12-13T21:29:13.801Z,7.03
2022-12-13T21:31:48.806Z,5.30
2022-12-13T21:34:16.918Z,8.20
2022-12-13T21:36:47.116Z,6.00
2022-12-13T21:39:16.023Z,5.80
2022-12-13T21:41:43.408Z,5.63
2022-12-13T21:44:12.167Z,5.67
2022-12-13T21:49:27.106Z,6.80
2022-12-13T21:51:55.067Z,7.20
2022-12-13T21:54:22.738Z,8.10
2022-12-13T21:57:09.088Z,5.63
2022-12-13T21:59:36.526Z,6.77
2022-12-13T22:02:12.464Z,6.20
2022-12-13T22:04:43.492Z,5.70
2022-12-13T22:07:13.392Z,6.50
2022-12-13T22:09:41.160Z,6.77
2022-12-13T22:12:10.404Z,6.13
2022-12-13T22:14:38.402Z,6.30
2022-12-13T22:17:05.765Z,5.37
2022-12-13T22:19:33.254Z,6.70
2022-12-13T22:22:00.781Z,6.67
2022-12-13T22:24:28.225Z,5.40
2022-12-13T22:26:55.550Z,5.93
2022-12-13T22:29:22.987Z,6.90
2022-12-13T22:31:50.631Z,6.77
2022-12-13T22:34:18.125Z,6.00
2022-12-13T22:36:45.477Z,6.43
2022-12-13T22:39:19.577Z,6.20
2022-12-13T22:41:47.643Z,6.37
2022-12-13T22:44:16.272Z,6.97
2022-12-13T22:46:43.718Z,6.87
2022-12-13T22:49:12.036Z,3.47
2022-12-13T22:51:39.759Z,6.17
2022-12-13T22:54:07.765Z,5.43
2022-12-13T22:56:35.489Z,5.37
2022-12-13T22:59:04.168Z,5.93
2022-12-13T23:01:33.386Z,6.50
2022-12-13T23:04:01.080Z,7.60
2022-12-13T23:06:30.584Z,7.33
2022-12-13T23:09:00.162Z,5.47
2022-12-13T23:11:47.641Z,5.23
2022-12-13T23:14:20.237Z,6.13
2022-12-13T23:16:47.749Z,6.03
2022-12-13T23:19:41.063Z,5.80
2022-12-13T23:22:07.198Z,6.60
2022-12-13T23:24:34.576Z,6.37
2022-12-13T23:27:01.954Z,7.73
2022-12-13T23:29:29.287Z,6.87
2022-12-13T23:31:56.950Z,6.93
2022-12-13T23:34:24.260Z,7.00
2022-12-13T23:36:51.718Z,6.40
2022-12-13T23:39:19.015Z,5.00
2022-12-13T23:41:46.500Z,6.10
2022-12-13T23:44:13.876Z,5.97
2022-12-13T23:46:41.259Z,5.70
2022-12-13T23:49:09.858Z,6.17
2022-12-13T23:51:37.918Z,6.03
2022-12-13T23:54:08.274Z,6.00
2022-12-13T23:56:35.722Z,6.97
2022-12-13T23:59:03.148Z,8.10
